Time;durP1;ratioP1;P1;durP2;ratioP2;P2;SDS_P1;SDS_P2;PMS_P1;PMS_P2;Temp;Humidity;BMP_temperature;BMP_pressure;BME280_temperature;BME280_humidity;BME280_pressure;Samples;Min_cycle;Max_cycle;Signal;HPM_P1;HPM_P2
2023/01/28 00:00:46;;;;;;;9.80;9.07;;;;;;;1.69;75.00;102480.63;5117082;28;20204;-69
2023/01/28 00:03:14;;;;;;;8.77;8.17;;;;;;;1.69;75.20;102478.00;5117599;28;20188;-69
2023/01/28 00:05:41;;;;;;;9.17;8.50;;;;;;;1.65;75.02;102473.63;5116990;27;20200;-69
2023/01/28 00:08:09;;;;;;;9.43;8.70;;;;;;;1.67;75.06;102474.47;5116914;28;20216;-69
2023/01/28 00:10:38;;;;;;;9.47;8.97;;;;;;;1.74;75.04;102473.56;5117113;28;20213;-69
2023/01/28 00:13:06;;;;;;;8.77;8.27;;;;;;;1.74;75.24;102481.47;5117448;28;20191;-69
2023/01/28 00:15:32;;;;;;;8.00;7.53;;;;;;;1.74;74.56;102481.47;5117102;28;20740;-69
2023/01/28 00:17:59;;;;;;;8.20;7.77;;;;;;;1.69;74.65;102478.00;5116675;28;20216;-69
2023/01/28 00:20:25;;;;;;;8.73;8.17;;;;;;;1.79;73.84;102481.44;5117049;28;20185;-69
2023/01/28 00:22:52;;;;;;;7.20;6.83;;;;;;;1.72;74.05;102477.97;5117302;28;20201;-69
2023/01/28 00:25:18;;;;;;;8.23;7.73;;;;;;;1.69;74.27;102485.91;5116876;28;20194;-69
2023/01/28 00:27:45;;;;;;;7.47;7.07;;;;;;;1.69;74.14;102493.84;5117359;27;20186;-68
2023/01/28 00:30:11;;;;;;;8.60;8.10;;;;;;;1.70;73.74;102485.91;5115378;28;20214;-69
2023/01/28 00:32:38;;;;;;;6.83;6.53;;;;;;;1.69;73.61;102488.56;5116771;28;20273;-69
2023/01/28 00:35:04;;;;;;;7.77;7.40;;;;;;;1.68;73.99;102486.81;5116842;28;20193;-69
2023/01/28 00:37:31;;;;;;;7.03;6.70;;;;;;;1.68;73.44;102487.69;5132317;27;20192;-69
2023/01/28 00:39:57;;;;;;;7.53;6.97;;;;;;;1.63;73.86;102486.84;5116181;28;20292;-69
2023/01/28 00:42:24;;;;;;;8.43;7.83;;;;;;;1.59;74.27;102482.47;5116303;28;20192;-69
2023/01/28 00:44:53;;;;;;;7.40;6.80;;;;;;;1.62;73.74;102484.22;5115274;28;20199;-69
2023/01/28 00:47:20;;;;;;;8.10;7.70;;;;;;;1.60;73.44;102488.63;5116244;28;20167;-68
2023/01/28 00:49:47;;;;;;;8.07;7.73;;;;;;;1.57;73.99;102483.34;5116050;28;20291;-69
2023/01/28 00:52:13;;;;;;;8.07;7.67;;;;;;;1.58;73.62;102490.38;5114887;28;20189;-69
2023/01/28 00:54:40;;;;;;;7.53;7.17;;;;;;;1.52;73.48;102493.94;5116173;27;20173;-69
2023/01/28 00:57:06;;;;;;;7.50;7.30;;;;;;;1.58;73.54;102493.03;5114794;28;20540;-69
2023/01/28 00:59:33;;;;;;;7.83;7.43;;;;;;;1.52;74.15;102501.88;5114668;28;20241;-69
2023/01/28 01:02:11;;;;;;;9.53;8.93;;;;;;;1.51;74.06;102492.22;5114642;28;20276;-69
2023/01/28 01:04:38;;;;;;;9.70;8.90;;;;;;;1.59;73.82;102495.66;5115885;28;20642;-69
2023/01/28 01:07:05;;;;;;;10.30;9.43;;;;;;;1.66;72.60;102494.75;5114547;28;20632;-69
2023/01/28 01:09:32;;;;;;;9.57;8.97;;;;;;;1.56;72.75;102495.69;5114462;28;20631;-69
2023/01/28 01:11:58;;;;;;;7.40;7.10;;;;;;;1.55;72.32;102491.28;5115686;28;20201;-69
2023/01/28 01:14:25;;;;;;;7.43;7.10;;;;;;;1.45;72.67;102497.50;5115731;28;20191;-69
2023/01/28 01:16:51;;;;;;;8.47;8.07;;;;;;;1.43;73.08;102494.00;5114579;28;20193;-69
2023/01/28 01:19:17;;;;;;;7.50;7.10;;;;;;;1.46;72.10;102496.59;5115772;28;20211;-69
2023/01/28 01:21:49;;;;;;;7.97;7.67;;;;;;;1.42;72.35;102481.69;5115542;28;20185;-69
2023/01/28 01:24:15;;;;;;;6.97;6.70;;;;;;;1.44;72.06;102486.06;5114240;28;20288;-69
2023/01/28 01:26:42;;;;;;;7.40;7.10;;;;;;;1.37;71.81;102494.03;5115419;28;20196;-69
2023/01/28 01:29:08;;;;;;;8.70;7.20;;;;;;;1.31;71.88;102494.06;5115336;28;20220;-69
2023/01/28 01:31:35;;;;;;;9.87;8.53;;;;;;;1.31;72.68;102504.63;5115848;28;20689;-68
2023/01/28 01:34:01;;;;;;;8.70;8.00;;;;;;;1.29;72.74;102512.53;5115576;28;20181;-68
2023/01/28 01:36:28;;;;;;;7.43;6.87;;;;;;;1.34;72.21;102518.69;5114233;28;20193;-68
2023/01/28 01:38:55;;;;;;;7.47;7.17;;;;;;;1.28;71.81;102516.94;5115336;28;20294;-68
2023/01/28 01:41:30;;;;;;;7.90;7.33;;;;;;;1.32;72.75;102520.44;5115693;28;20264;-68
2023/01/28 01:44:02;;;;;;;8.83;8.40;;;;;;;1.28;72.12;102508.16;5115121;28;20177;-68
2023/01/28 01:46:37;;;;;;;10.20;9.30;;;;;;;1.26;72.87;102516.06;5113146;28;20295;-68
2023/01/28 01:49:23;;;;;;;9.13;8.43;;;;;;;1.31;72.93;102523.09;5113704;28;20229;-68
2023/01/28 01:51:56;;;;;;;9.07;8.47;;;;;;;1.29;72.45;102512.53;5115482;28;20181;-68
2023/01/28 01:54:27;;;;;;;8.13;7.80;;;;;;;1.24;72.75;102522.22;5115189;28;20200;-68
2023/01/28 01:56:57;;;;;;;8.83;8.30;;;;;;;1.28;72.15;102523.97;5113679;28;20177;-68
2023/01/28 01:59:31;;;;;;;9.13;8.43;;;;;;;1.23;71.92;102517.84;5113439;28;20252;-68
2023/01/28 02:02:02;;;;;;;9.37;8.67;;;;;;;1.22;72.27;102519.63;5115319;28;20188;-68
2023/01/28 02:04:34;;;;;;;11.50;10.50;;;;;;;1.27;72.20;102523.09;5113684;28;20181;-68
2023/01/28 02:07:01;;;;;;;10.63;9.70;;;;;;;1.22;71.90;102522.25;5114958;28;20184;-68
2023/01/28 02:09:35;;;;;;;9.67;8.77;;;;;;;1.21;71.54;102520.47;5113519;28;20225;-68
2023/01/28 02:12:07;;;;;;;10.67;9.67;;;;;;;1.19;71.81;102522.25;5115047;28;20215;-68
2023/01/28 02:14:40;;;;;;;8.80;8.10;;;;;;;1.14;71.36;102529.31;5113290;28;20189;-68
2023/01/28 02:17:07;;;;;;;9.33;8.57;;;;;;;1.11;70.69;102536.38;5114764;28;20185;-68
2023/01/28 02:19:39;;;;;;;8.03;7.67;;;;;;;1.07;70.42;102540.75;5113088;28;20724;-68
2023/01/28 02:22:48;;;;;;;9.23;8.30;;;;;;;1.10;70.25;102538.09;5114497;28;20170;-69
2023/01/28 02:25:33;;;;;;;8.03;7.57;;;;;;;1.14;70.59;102536.34;5113751;28;20223;-69
2023/01/28 02:28:26;;;;;;;8.73;7.93;;;;;;;1.11;71.11;102536.38;5113316;28;20608;-68
2023/01/28 02:30:59;;;;;;;8.40;8.00;;;;;;;1.10;71.41;102521.41;5114676;28;20205;-69
2023/01/28 02:33:34;;;;;;;7.40;6.90;;;;;;;1.16;70.18;102526.66;5113079;28;20177;-69
2023/01/28 02:36:11;;;;;;;7.63;7.00;;;;;;;1.14;71.25;102525.78;5112911;28;20185;-69
2023/01/28 02:38:45;;;;;;;8.03;7.63;;;;;;;1.09;71.16;102528.44;5114257;28;20223;-69
2023/01/28 02:41:19;;;;;;;7.40;7.10;;;;;;;1.05;71.38;102527.59;5114650;28;20200;-69
2023/01/28 02:43:47;;;;;;;7.63;7.33;;;;;;;1.13;70.58;102535.47;5112787;28;20527;-69
2023/01/28 02:49:15;;;;;;;8.07;7.57;;;;;;;1.06;70.47;102533.75;5112628;28;20757;-69
2023/01/28 02:51:59;;;;;;;8.30;7.90;;;;;;;1.12;71.57;102536.34;5114164;28;20196;-69
2023/01/28 02:54:51;;;;;;;8.70;8.07;;;;;;;1.10;71.13;102535.47;5112626;28;20197;-69
2023/01/28 02:57:41;;;;;;;9.33;8.13;;;;;;;1.15;70.05;102528.44;5113174;28;20207;-69
2023/01/28 03:00:24;;;;;;;9.40;8.73;;;;;;;1.06;71.53;102531.09;5112591;28;20272;-69
2023/01/28 03:03:01;;;;;;;8.80;8.13;;;;;;;1.11;70.69;102524.03;5114055;28;20181;-69
2023/01/28 03:05:36;;;;;;;9.20;8.50;;;;;;;1.00;71.18;102517.91;5114065;28;20192;-69
2023/01/28 03:09:21;;;;;;;8.93;8.50;;;;;;;1.03;70.81;102521.44;5113982;28;20678;-68
2023/01/28 03:36:50;;;;;;;9.57;8.53;;;;;;;1.11;71.59;102516.13;5113015;28;20200;-69
2023/01/28 03:39:36;;;;;;;10.00;9.03;;;;;;;1.09;71.61;102520.53;5112417;28;20213;-68
2023/01/28 03:42:10;;;;;;;8.33;7.97;;;;;;;1.14;72.14;102521.38;5112212;28;20240;-68
2023/01/28 03:44:50;;;;;;;11.67;10.77;;;;;;;1.15;71.08;102519.63;5112437;28;20189;-68
2023/01/28 03:47:26;;;;;;;9.47;8.87;;;;;;;1.10;71.56;102527.53;5112144;28;20193;-68
2023/01/28 03:49:54;;;;;;;11.47;10.57;;;;;;;1.15;71.80;102538.09;5112289;28;20567;-68
2023/01/28 03:52:30;;;;;;;11.43;10.43;;;;;;;1.11;72.05;102533.72;5112277;28;20675;-68
2023/01/28 03:55:14;;;;;;;13.27;12.10;;;;;;;1.04;71.29;102527.59;5112298;28;20655;-69
2023/01/28 03:57:43;;;;;;;13.70;12.43;;;;;;;1.11;69.84;102531.97;5113057;28;20201;-69
2023/01/28 04:00:11;;;;;;;13.63;12.43;;;;;;;1.06;69.70;102529.34;5112003;28;20196;-69
2023/01/28 04:02:40;;;;;;;12.63;11.43;;;;;;;1.08;70.29;102537.25;5113550;28;20640;-69
2023/01/28 04:05:11;;;;;;;11.60;10.80;;;;;;;1.03;69.75;102534.63;5111914;28;20686;-69
2023/01/28 04:07:43;;;;;;;14.00;12.60;;;;;;;1.04;70.06;102539.00;5111923;28;20633;-69
2023/01/28 04:10:38;;;;;;;13.43;12.23;;;;;;;1.06;70.02;102539.88;5108703;28;20624;-69
2023/01/28 04:13:11;;;;;;;12.57;11.57;;;;;;;1.06;70.67;102537.25;5115686;28;20185;-69
2023/01/28 04:15:39;;;;;;;14.07;12.83;;;;;;;1.05;70.73;102534.59;5116691;28;20227;-69
2023/01/28 04:18:08;;;;;;;13.70;12.37;;;;;;;1.04;69.44;102543.41;5115804;28;20240;-68
2023/01/28 04:20:36;;;;;;;14.43;12.70;;;;;;;1.06;68.89;102539.03;5132687;27;20246;-69
2023/01/28 04:23:03;;;;;;;13.97;12.03;;;;;;;1.04;68.43;102546.91;5116742;28;20659;-69
2023/01/28 04:25:31;;;;;;;12.33;11.20;;;;;;;1.04;68.15;102551.31;5115411;28;20189;-69
2023/01/28 04:27:58;;;;;;;15.93;12.00;;;;;;;0.98;68.43;102557.50;5116882;28;20662;-69
2023/01/28 04:30:27;;;;;;;12.60;11.50;;;;;;;0.96;68.33;102554.00;5116160;28;20284;-69
2023/01/28 04:33:05;;;;;;;13.53;11.70;;;;;;;0.98;68.28;102559.25;5116644;28;20609;-69
2023/01/28 04:35:50;;;;;;;13.87;12.57;;;;;;;0.99;69.03;102561.03;5117329;28;20182;-69
2023/01/28 04:38:23;;;;;;;13.50;12.20;;;;;;;1.00;68.60;102552.22;5115136;28;20205;-69
2023/01/28 04:40:59;;;;;;;13.17;11.53;;;;;;;0.98;68.62;102546.06;5115681;28;20189;-69
2023/01/28 04:43:29;;;;;;;14.23;12.73;;;;;;;0.95;68.31;102554.84;5115441;28;20728;-69
2023/01/28 04:46:18;;;;;;;12.20;11.10;;;;;;;0.90;68.63;102558.41;5116218;28;20262;-69
2023/01/28 04:48:54;;;;;;;11.70;10.57;;;;;;;0.90;69.66;102556.63;5114925;28;20213;-69
2023/01/28 04:51:38;;;;;;;13.37;11.97;;;;;;;0.94;68.26;102541.69;5116447;28;20221;-69
2023/01/28 04:54:10;;;;;;;13.13;11.67;;;;;;;1.02;68.74;102547.81;5116754;28;20170;-69
2023/01/28 04:56:36;;;;;;;14.03;11.67;;;;;;;0.99;67.35;102543.44;5116614;28;20185;-69
2023/01/28 04:59:03;;;;;;;13.87;12.00;;;;;;;0.92;68.89;102544.31;5114708;28;20303;-69
2023/01/28 05:01:31;;;;;;;17.37;12.93;;;;;;;0.94;68.23;102549.59;5114744;28;20188;-69
2023/01/28 05:03:58;;;;;;;15.47;13.17;;;;;;;0.92;68.21;102536.41;5114690;28;20195;-69
2023/01/28 05:06:26;;;;;;;15.40;12.77;;;;;;;0.89;67.82;102539.06;5114578;28;20214;-69
2023/01/28 05:08:55;;;;;;;13.03;11.67;;;;;;;0.77;69.17;102544.38;5114472;28;20213;-69
2023/01/28 05:11:21;;;;;;;14.00;12.60;;;;;;;0.83;68.79;102547.84;5114456;28;20274;-69
2023/01/28 05:13:53;;;;;;;13.00;11.77;;;;;;;0.81;68.79;102544.34;5114535;28;20213;-69
2023/01/28 05:16:20;;;;;;;13.87;12.40;;;;;;;0.77;68.75;102541.72;5114939;28;20280;-69
2023/01/28 05:18:46;;;;;;;13.10;11.80;;;;;;;0.75;68.36;102544.34;5114284;28;20217;-68
2023/01/28 05:21:15;;;;;;;12.67;11.57;;;;;;;0.75;67.93;102541.72;5113867;28;20185;-68
2023/01/28 05:23:42;;;;;;;13.77;12.40;;;;;;;0.71;68.19;102550.50;5114399;28;20559;-68
2023/01/28 05:26:09;;;;;;;18.73;12.83;;;;;;;0.77;67.46;102550.50;5114446;28;20613;-68
2023/01/28 05:28:36;;;;;;;13.50;12.17;;;;;;;0.71;67.94;102553.13;5097390;28;20208;-68
2023/01/28 05:31:06;;;;;;;14.80;13.27;;;;;;;0.69;68.52;102549.63;5114034;28;20197;-68
2023/01/28 05:33:33;;;;;;;13.80;12.60;;;;;;;0.68;68.45;102552.28;5114340;28;20671;-68
2023/01/28 05:36:01;;;;;;;13.47;12.13;;;;;;;0.70;67.71;102548.75;5114066;28;20193;-68
2023/01/28 05:38:27;;;;;;;13.27;11.70;;;;;;;0.74;68.40;102549.63;5113925;28;20216;-68
2023/01/28 05:40:53;;;;;;;14.93;13.37;;;;;;;0.69;68.23;102552.25;5113965;28;20189;-68
2023/01/28 05:43:21;;;;;;;14.07;12.77;;;;;;;0.71;67.95;102558.41;5113911;28;20195;-68
2023/01/28 05:46:07;;;;;;;14.00;12.53;;;;;;;0.66;67.66;102567.22;5113955;28;20191;-69
2023/01/28 05:48:53;;;;;;;14.10;12.73;;;;;;;0.64;68.80;102567.22;5114900;28;20224;-69
2023/01/28 05:51:35;;;;;;;18.13;15.33;;;;;;;0.66;68.56;102573.38;5115489;28;20201;-69
2023/01/28 05:54:02;;;;;;;18.00;14.90;;;;;;;0.60;68.19;102583.94;5114502;28;20193;-69
2023/01/28 05:56:29;;;;;;;14.90;13.33;;;;;;;0.60;68.76;102584.81;5113863;28;20534;-69
2023/01/28 05:58:55;;;;;;;18.20;14.60;;;;;;;0.64;68.95;102583.03;5113529;28;20240;-69
2023/01/28 06:01:22;;;;;;;18.53;15.63;;;;;;;0.55;68.68;102575.13;5113544;28;20185;-69
2023/01/28 06:03:52;;;;;;;27.13;15.80;;;;;;;0.54;68.11;102571.63;5113526;28;20571;-69
2023/01/28 06:06:18;;;;;;;19.70;16.40;;;;;;;0.58;68.34;102575.13;5113461;28;20727;-69
2023/01/28 06:08:45;;;;;;;19.33;15.70;;;;;;;0.51;68.90;102571.63;5113851;28;20213;-69
2023/01/28 06:11:18;;;;;;;18.13;16.10;;;;;;;0.51;68.04;102570.75;5113581;28;20213;-69
2023/01/28 06:13:46;;;;;;;18.87;16.13;;;;;;;0.53;67.81;102569.00;5114164;28;20609;-69
2023/01/28 06:16:41;;;;;;;23.93;15.37;;;;;;;0.56;68.17;102582.16;5094835;28;20274;-69
2023/01/28 06:19:27;;;;;;;19.60;16.50;;;;;;;0.54;68.24;102570.75;5114733;28;20210;-68
2023/01/28 06:21:54;;;;;;;22.63;16.67;;;;;;;0.59;66.70;102572.47;5113202;28;20256;-68
2023/01/28 06:24:20;;;;;;;26.90;16.70;;;;;;;0.39;67.46;102569.88;5113057;28;20242;-68
2023/01/28 06:26:47;;;;;;;19.90;15.57;;;;;;;0.38;66.91;102570.75;5114676;28;20242;-68
2023/01/28 06:29:13;;;;;;;19.23;15.67;;;;;;;0.42;66.52;102575.13;5113200;28;20213;-68
2023/01/28 06:31:40;;;;;;;19.27;15.97;;;;;;;0.39;67.53;102577.78;5114253;28;20209;-68
2023/01/28 06:34:08;;;;;;;20.37;16.13;;;;;;;0.47;66.95;102580.41;5114504;28;20207;-68
2023/01/28 06:36:36;;;;;;;19.13;16.07;;;;;;;0.43;67.85;102583.91;5114178;28;20718;-68
2023/01/28 06:39:03;;;;;;;19.80;15.37;;;;;;;0.37;67.83;102579.53;5114178;28;20297;-68
2023/01/28 06:41:29;;;;;;;20.53;16.23;;;;;;;0.34;66.76;102573.38;5114282;28;20542;-68
2023/01/28 06:43:56;;;;;;;20.63;16.50;;;;;;;0.37;67.25;102573.38;5114892;28;20174;-68
2023/01/28 06:46:23;;;;;;;20.40;15.37;;;;;;;0.44;67.78;102580.41;5114269;28;20184;-68
2023/01/28 06:48:50;;;;;;;22.87;16.00;;;;;;;0.39;68.27;102571.63;5114062;28;20208;-68
2023/01/28 06:51:16;;;;;;;18.17;15.37;;;;;;;0.38;67.62;102570.75;5114022;28;20200;-68
2023/01/28 06:53:43;;;;;;;21.43;15.33;;;;;;;0.28;68.00;102571.59;5114044;28;20647;-68
2023/01/28 06:56:11;;;;;;;17.60;14.97;;;;;;;0.28;66.81;102581.28;5114085;28;20185;-69
2023/01/28 06:58:37;;;;;;;18.47;15.17;;;;;;;0.26;67.65;102570.72;5114359;28;20208;-69
2023/01/28 07:01:09;;;;;;;18.03;15.43;;;;;;;0.25;67.38;102574.25;5112840;28;20276;-69
2023/01/28 07:03:36;;;;;;;15.87;13.83;;;;;;;0.24;68.13;102577.78;5113759;28;20188;-69
2023/01/28 07:06:02;;;;;;;20.13;15.93;;;;;;;0.22;68.78;102579.53;5114020;28;20203;-69
2023/01/28 07:08:28;;;;;;;15.60;14.03;;;;;;;0.26;68.50;102575.13;5114133;28;20212;-69
2023/01/28 07:10:55;;;;;;;20.77;16.53;;;;;;;0.26;68.54;102581.25;5114012;28;20520;-69
2023/01/28 07:13:21;;;;;;;22.40;13.77;;;;;;;0.24;69.29;102575.13;5113563;28;20697;-69
2023/01/28 07:15:48;;;;;;;18.70;15.63;;;;;;;0.27;68.27;102580.41;5112476;28;20201;-69
2023/01/28 07:18:15;;;;;;;18.43;15.87;;;;;;;0.27;67.90;102582.16;5113848;28;20205;-69
2023/01/28 07:20:41;;;;;;;24.97;16.00;;;;;;;0.25;68.70;102584.78;5113853;28;20188;-69
2023/01/28 07:23:07;;;;;;;18.63;14.73;;;;;;;0.22;67.75;102582.16;5113521;28;20267;-69
2023/01/28 07:25:34;;;;;;;18.23;15.30;;;;;;;0.21;67.93;102585.66;5113599;28;20192;-69
2023/01/28 07:28:00;;;;;;;17.23;15.00;;;;;;;0.21;69.57;102585.66;5113745;28;20205;-69
2023/01/28 07:30:26;;;;;;;17.20;15.43;;;;;;;0.22;68.96;102590.06;5113575;28;20188;-69
2023/01/28 07:32:57;;;;;;;18.67;14.97;;;;;;;0.23;68.09;102588.28;5113946;28;20201;-69
2023/01/28 07:35:25;;;;;;;16.90;14.80;;;;;;;0.26;68.39;102586.53;5112842;28;20550;-69
2023/01/28 07:37:55;;;;;;;18.90;16.50;;;;;;;0.23;68.30;102585.66;5113678;28;20598;-69
2023/01/28 07:40:23;;;;;;;14.57;13.07;;;;;;;0.19;68.97;102579.50;5113989;28;20177;-69
2023/01/28 07:42:50;;;;;;;18.40;14.93;;;;;;;0.21;69.90;102580.38;5113399;28;20184;-69
2023/01/28 07:45:21;;;;;;;16.07;14.23;;;;;;;0.25;70.19;102589.19;5116472;28;20181;-69
2023/01/28 07:47:59;;;;;;;32.37;14.53;;;;;;;0.24;70.32;102593.56;5117961;28;20552;-69
2023/01/28 07:50:28;;;;;;;16.87;14.47;;;;;;;0.30;70.40;102604.09;5117654;28;20174;-69
2023/01/28 07:52:55;;;;;;;26.40;16.07;;;;;;;0.31;69.71;102602.34;5117259;28;20614;-69
2023/01/28 07:55:22;;;;;;;17.60;15.70;;;;;;;0.33;69.23;102600.59;5117567;28;20651;-69
2023/01/28 07:57:54;;;;;;;28.60;15.17;;;;;;;0.32;68.30;102604.13;5117131;28;20685;-69
2023/01/28 08:00:22;;;;;;;19.87;16.20;;;;;;;0.35;69.54;102606.75;5117200;28;20599;-69
2023/01/28 08:02:49;;;;;;;24.57;16.57;;;;;;;0.28;69.53;102608.50;5117403;28;20581;-69
2023/01/28 08:05:20;;;;;;;17.40;15.50;;;;;;;0.37;69.49;102612.91;5117405;28;20181;-69
2023/01/28 08:07:47;;;;;;;18.20;15.43;;;;;;;0.34;70.42;102615.53;5116953;28;20193;-69
2023/01/28 08:10:18;;;;;;;22.77;16.07;;;;;;;0.35;70.02;102607.63;5116957;28;20746;-69
2023/01/28 08:12:58;;;;;;;21.67;14.50;;;;;;;0.37;70.79;102610.28;5117470;28;20197;-69
2023/01/28 08:15:25;;;;;;;20.00;14.27;;;;;;;0.39;69.06;102612.03;5117488;28;20264;-69
2023/01/28 08:17:58;;;;;;;22.10;15.23;;;;;;;0.42;69.75;102612.03;5116986;28;20523;-69
2023/01/28 08:20:26;;;;;;;16.70;14.40;;;;;;;0.42;69.75;102617.28;5117402;28;20628;-69
2023/01/28 08:22:53;;;;;;;17.03;13.57;;;;;;;0.43;69.27;102628.69;5116685;28;20189;-70
2023/01/28 08:25:20;;;;;;;22.00;16.20;;;;;;;0.43;68.28;102626.06;5116898;28;20581;-69
2023/01/28 08:27:46;;;;;;;18.07;15.20;;;;;;;0.50;69.49;102630.47;5117147;28;20723;-69
2023/01/28 08:30:12;;;;;;;16.63;14.77;;;;;;;0.51;69.35;102634.88;5116861;28;20268;-69
2023/01/28 08:32:39;;;;;;;17.30;15.13;;;;;;;0.50;69.18;102648.03;5116774;28;20270;-69
2023/01/28 08:35:06;;;;;;;17.93;15.13;;;;;;;0.52;68.94;102641.91;5116471;28;20193;-69
2023/01/28 08:37:33;;;;;;;16.13;14.47;;;;;;;0.54;68.49;102641.91;5117265;28;20189;-69
2023/01/28 08:39:59;;;;;;;22.43;15.60;;;;;;;0.59;68.82;102655.97;5115077;28;20586;-69
2023/01/28 08:42:26;;;;;;;16.83;14.93;;;;;;;0.59;68.80;102677.06;5116379;28;20189;-70
2023/01/28 08:44:52;;;;;;;22.80;15.27;;;;;;;0.62;68.01;102670.03;5116871;28;20187;-69
2023/01/28 08:47:19;;;;;;;17.40;15.00;;;;;;;0.60;68.80;102677.06;5116523;28;20189;-69
2023/01/28 08:49:45;;;;;;;24.53;15.23;;;;;;;0.56;68.81;102688.47;5116385;28;20201;-69
2023/01/28 08:52:11;;;;;;;16.67;14.87;;;;;;;0.55;69.42;102685.84;5116049;28;20201;-69
2023/01/28 08:54:38;;;;;;;17.83;15.83;;;;;;;0.56;69.04;102695.50;5116057;28;20182;-69
2023/01/28 08:57:04;;;;;;;19.83;15.57;;;;;;;0.50;69.30;102703.41;5116581;28;20191;-69
2023/01/28 08:59:30;;;;;;;17.07;14.80;;;;;;;0.56;67.78;102699.03;5115941;28;20292;-69
2023/01/28 09:01:57;;;;;;;19.70;15.07;;;;;;;0.55;68.68;102699.91;5116257;28;20185;-69
2023/01/28 09:04:23;;;;;;;18.40;14.53;;;;;;;0.66;68.49;102701.69;5116487;28;20189;-69
2023/01/28 09:06:50;;;;;;;23.83;16.90;;;;;;;0.66;66.63;102704.31;5116113;28;20193;-69
2023/01/28 09:09:16;;;;;;;17.87;15.10;;;;;;;0.62;67.89;102711.31;5116026;28;20679;-69
2023/01/28 09:11:43;;;;;;;20.17;15.03;;;;;;;0.64;66.81;102712.22;5115767;28;20673;-69
2023/01/28 09:14:09;;;;;;;20.10;16.27;;;;;;;0.73;66.30;102708.72;5115939;28;20240;-69
2023/01/28 09:16:35;;;;;;;18.97;15.60;;;;;;;0.70;67.50;102708.72;5115912;28;20193;-69
2023/01/28 09:19:02;;;;;;;21.90;16.90;;;;;;;0.70;67.99;102722.78;5115490;28;20211;-69
2023/01/28 09:21:28;;;;;;;18.17;16.20;;;;;;;0.76;68.60;102714.00;5115910;28;20234;-69
2023/01/28 09:23:55;;;;;;;20.77;16.17;;;;;;;0.76;68.07;102701.69;5115486;28;20181;-69
2023/01/28 09:26:22;;;;;;;19.20;16.30;;;;;;;0.74;68.63;102721.91;5116024;28;20181;-69
2023/01/28 09:28:48;;;;;;;20.63;15.97;;;;;;;0.72;69.06;102712.22;5115529;28;20304;-69
2023/01/28 09:31:14;;;;;;;21.30;15.13;;;;;;;0.84;67.60;102730.72;5115420;28;20182;-69
2023/01/28 09:33:41;;;;;;;22.23;16.53;;;;;;;0.78;68.00;102722.78;5115225;28;20216;-69
2023/01/28 09:36:10;;;;;;;17.27;14.93;;;;;;;0.83;66.49;102724.53;5115335;28;20605;-69
2023/01/28 09:38:36;;;;;;;19.80;14.93;;;;;;;0.78;66.82;102725.44;5115166;28;20247;-69
2023/01/28 09:41:20;;;;;;;22.63;15.57;;;;;;;0.81;68.12;102734.22;5115205;28;20189;-69
2023/01/28 09:44:09;;;;;;;17.83;15.20;;;;;;;0.82;68.82;102730.72;5116313;28;20578;-69
2023/01/28 09:46:37;;;;;;;18.30;15.20;;;;;;;0.84;68.30;102734.22;5101886;28;20341;-69
2023/01/28 09:49:19;;;;;;;20.20;16.70;;;;;;;0.79;68.05;102733.34;5115320;28;20205;-70
2023/01/28 09:51:52;;;;;;;17.43;15.57;;;;;;;0.83;68.98;102731.56;5115308;28;20508;-70
2023/01/28 09:54:43;;;;;;;17.83;15.30;;;;;;;0.83;68.42;102728.94;5114879;28;20570;-70
2023/01/28 09:57:19;;;;;;;18.60;14.57;;;;;;;0.82;68.46;102732.47;5115446;28;20188;-70
2023/01/28 09:59:46;;;;;;;19.73;15.90;;;;;;;0.89;69.00;102730.69;5115153;28;20213;-69
2023/01/28 10:02:43;;;;;;;19.20;15.47;;;;;;;0.88;67.51;102735.09;5115182;28;20587;-69
2023/01/28 10:05:19;;;;;;;19.33;15.53;;;;;;;0.89;67.27;102734.25;5115184;28;20256;-69
2023/01/28 10:08:04;;;;;;;16.97;13.90;;;;;;;0.88;66.45;102721.91;5114762;28;20181;-69
2023/01/28 10:10:40;;;;;;;17.70;15.50;;;;;;;0.91;66.41;102737.75;5114951;28;20620;-69
2023/01/28 10:13:36;;;;;;;22.70;16.27;;;;;;;0.85;66.36;102732.47;5115141;28;20204;-69
2023/01/28 10:16:08;;;;;;;25.30;17.13;;;;;;;0.78;64.53;102728.94;5114920;28;20216;-69
2023/01/28 10:18:42;;;;;;;20.17;15.47;;;;;;;0.68;64.83;102724.53;5114561;28;20213;-69
2023/01/28 10:21:15;;;;;;;18.60;14.97;;;;;;;0.64;65.75;102717.50;5114528;28;20645;-69
2023/01/28 10:24:03;;;;;;;18.67;14.47;;;;;;;0.73;65.52;102714.88;5114489;28;20275;-69
2023/01/28 10:26:35;;;;;;;18.97;14.03;;;;;;;0.76;64.95;102699.03;5114954;28;20256;-69
2023/01/28 10:29:18;;;;;;;18.63;14.57;;;;;;;0.82;66.39;102699.06;5114847;27;20644;-69
2023/01/28 10:31:53;;;;;;;17.43;13.80;;;;;;;0.90;65.94;102700.81;5114861;28;20602;-69
2023/01/28 10:34:21;;;;;;;17.33;13.43;;;;;;;0.99;65.06;102706.09;5114235;28;20295;-70
2023/01/28 10:36:49;;;;;;;17.30;15.40;;;;;;;1.13;64.50;102706.97;5114509;28;20545;-69
2023/01/28 10:39:18;;;;;;;17.97;14.97;;;;;;;1.13;65.02;102714.03;5114391;28;20216;-69
2023/01/28 10:41:45;;;;;;;17.23;14.10;;;;;;;1.03;63.84;102718.38;5114178;28;20185;-70
2023/01/28 10:44:41;;;;;;;21.47;14.60;;;;;;;1.04;64.92;102722.81;5114377;28;20201;-69
2023/01/28 10:47:13;;;;;;;22.07;17.93;;;;;;;1.13;65.02;102722.81;5114568;28;20264;-69
2023/01/28 10:49:55;;;;;;;26.33;17.57;;;;;;;1.06;64.51;102724.56;5114227;28;20216;-69
2023/01/28 10:52:21;;;;;;;23.67;17.60;;;;;;;1.16;65.62;102733.34;5114170;28;20252;-69
2023/01/28 10:54:58;;;;;;;21.30;16.67;;;;;;;1.21;65.60;102731.59;5113971;28;20185;-69
2023/01/28 10:57:24;;;;;;;17.10;15.30;;;;;;;1.35;65.05;102730.72;5114449;28;20208;-69
2023/01/28 10:59:51;;;;;;;20.20;16.03;;;;;;;1.15;64.55;102736.88;5114033;28;20209;-69
2023/01/28 11:02:25;;;;;;;19.67;17.30;;;;;;;1.14;63.19;102742.16;5112662;28;20196;-69
2023/01/28 11:05:01;;;;;;;19.47;16.23;;;;;;;1.17;64.68;102740.38;5113852;28;20572;-69
2023/01/28 11:07:28;;;;;;;23.33;16.83;;;;;;;1.17;63.32;102739.50;5114024;28;20176;-69
2023/01/28 11:09:54;;;;;;;25.20;18.13;;;;;;;1.17;64.03;102750.06;5113863;28;20205;-69
2023/01/28 11:12:26;;;;;;;22.73;17.37;;;;;;;1.12;65.82;102752.69;5113558;28;20204;-69
2023/01/28 11:15:01;;;;;;;21.67;16.67;;;;;;;1.14;66.37;102742.16;5113989;28;20192;-69
2023/01/28 11:17:31;;;;;;;20.70;17.40;;;;;;;1.16;66.58;102750.94;5114265;28;20699;-69
2023/01/28 11:20:00;;;;;;;22.10;18.47;;;;;;;1.21;66.21;102744.78;5117907;28;20279;-69
2023/01/28 11:22:33;;;;;;;26.80;18.83;;;;;;;1.23;66.09;102744.78;5117894;28;20267;-69
2023/01/28 11:25:03;;;;;;;26.80;18.07;;;;;;;1.13;65.35;102728.09;5118182;28;20699;-69
2023/01/28 11:27:31;;;;;;;25.73;17.73;;;;;;;1.19;65.60;102735.97;5118157;28;20265;-69
2023/01/28 11:30:03;;;;;;;19.83;17.70;;;;;;;1.23;65.28;102735.13;5117735;28;20207;-69
2023/01/28 11:32:30;;;;;;;25.23;19.53;;;;;;;1.20;63.33;102740.41;5117930;28;20167;-69
2023/01/28 11:34:57;;;;;;;30.63;18.53;;;;;;;1.00;64.67;102734.22;5117875;28;20189;-69
2023/01/28 11:37:26;;;;;;;25.20;19.27;;;;;;;1.02;64.35;102728.06;5117568;28;20181;-69
2023/01/28 11:40:22;;;;;;;24.87;19.03;;;;;;;1.03;63.25;102736.84;5117737;28;20321;-69
2023/01/28 11:42:51;;;;;;;23.20;17.60;;;;;;;1.02;63.41;102733.34;5097478;28;20578;-69
2023/01/28 11:45:22;;;;;;;26.57;17.73;;;;;;;1.09;64.09;102733.38;5117729;28;20193;-69
2023/01/28 11:48:05;;;;;;;24.23;18.43;;;;;;;1.11;65.28;102721.94;5117738;28;20169;-69
2023/01/28 11:51:08;;;;;;;22.60;17.43;;;;;;;1.20;65.07;102723.69;5117680;28;20179;-69
2023/01/28 11:53:57;;;;;;;22.13;17.20;;;;;;;1.15;64.99;102718.41;5117516;28;20208;-69
2023/01/28 11:57:00;;;;;;;23.23;17.20;;;;;;;1.17;64.08;102719.28;5117268;28;20189;-69
2023/01/28 11:59:48;;;;;;;21.43;17.20;;;;;;;1.22;64.27;102722.81;5117884;28;20208;-70
2023/01/28 12:03:09;;;;;;;21.87;17.20;;;;;;;1.16;63.74;102701.69;5117188;28;20616;-70
2023/01/28 12:05:49;;;;;;;21.00;16.67;;;;;;;1.12;64.58;102697.28;5062138;28;20202;-70
2023/01/28 12:08:27;;;;;;;20.13;16.37;;;;;;;1.13;63.65;102683.22;5117275;28;20201;-70
2023/01/28 12:11:19;;;;;;;19.40;16.00;;;;;;;1.09;63.84;102685.88;5116980;28;20266;-70